createdAt,value
2019-01-04T00:00:30.858Z,4.5
2019-01-04T00:03:30.755Z,4.2
2019-01-04T00:06:30.536Z,5.6
2019-01-04T00:09:30.316Z,4.9
2019-01-04T00:12:30.448Z,5.6
2019-01-04T00:15:30.623Z,4.8
2019-01-04T00:18:30.655Z,4
2019-01-04T00:21:31.030Z,4.7
2019-01-04T00:24:30.231Z,4.3
2019-01-04T00:27:30.307Z,4.5
2019-01-04T00:30:30.335Z,4.5
2019-01-04T00:33:30.579Z,4.3
2019-01-04T00:36:30.862Z,4.4
2019-01-04T00:39:30.861Z,4.6
2019-01-04T00:42:30.598Z,5.1
2019-01-04T00:45:31.118Z,4.6
2019-01-04T00:48:30.656Z,4.3
2019-01-04T00:51:30.438Z,4.6
2019-01-04T00:54:30.399Z,4.3
2019-01-04T00:57:30.246Z,4.6
2019-01-04T01:00:30.839Z,4.7
2019-01-04T01:03:30.861Z,4.1
2019-01-04T01:06:31.364Z,4.3
2019-01-04T01:09:30.797Z,4.5
2019-01-04T01:12:30.258Z,4.7
2019-01-04T01:15:30.551Z,4.2
2019-01-04T01:18:30.335Z,4.5
2019-01-04T01:21:30.671Z,4.3
2019-01-04T01:24:30.787Z,4.3
2019-01-04T01:27:30.411Z,4
2019-01-04T01:30:30.734Z,4.3
2019-01-04T01:33:30.216Z,4.1
2019-01-04T01:36:30.340Z,4.7
2019-01-04T01:39:30.580Z,4.9
2019-01-04T01:42:30.682Z,4.2
2019-01-04T01:45:30.172Z,4.3
2019-01-04T01:48:30.336Z,4.7
2019-01-04T01:51:30.316Z,4.6
2019-01-04T01:54:30.716Z,4.5
2019-01-04T01:57:30.825Z,4.5
2019-01-04T02:00:30.411Z,4.3
2019-01-04T02:03:30.257Z,4.5
2019-01-04T02:06:30.462Z,4.4
2019-01-04T02:09:30.395Z,4.1
2019-01-04T02:12:30.263Z,4.3
2019-01-04T02:15:30.327Z,4.4
2019-01-04T02:18:30.261Z,4.4
2019-01-04T02:21:30.509Z,4.6
2019-01-04T02:24:30.600Z,4.2
2019-01-04T02:27:30.301Z,4.3
2019-01-04T02:30:30.879Z,4.5
2019-01-04T02:33:30.590Z,4.1
2019-01-04T02:36:30.447Z,5.4
2019-01-04T02:39:30.448Z,4.7
2019-01-04T02:42:30.314Z,4.4
2019-01-04T02:45:31.319Z,4.6
2019-01-04T02:48:30.147Z,4.5
2019-01-04T02:51:30.202Z,5.4
2019-01-04T02:54:30.496Z,4.5
2019-01-04T02:57:31.251Z,5
2019-01-04T03:00:30.728Z,4.7
2019-01-04T03:03:30.343Z,4.1
2019-01-04T03:06:30.435Z,4.6
2019-01-04T03:09:30.369Z,4.3
2019-01-04T03:12:30.531Z,4.4
2019-01-04T03:15:30.169Z,4.5
2019-01-04T03:18:30.279Z,4.5
2019-01-04T03:21:30.444Z,4.3
2019-01-04T03:24:30.844Z,4.1
2019-01-04T03:27:30.372Z,4.4
2019-01-04T03:30:30.672Z,4
2019-01-04T03:33:30.739Z,4.1
2019-01-04T03:36:30.319Z,4.3
2019-01-04T03:39:30.374Z,4.2
2019-01-04T03:42:30.684Z,4
2019-01-04T03:45:30.160Z,5.1
2019-01-04T03:48:30.364Z,4.6
2019-01-04T03:51:30.388Z,4.2
2019-01-04T03:54:30.436Z,4.4
2019-01-04T03:57:30.159Z,4
2019-01-04T04:00:30.140Z,4.4
2019-01-04T04:03:30.478Z,4.3
2019-01-04T04:06:30.426Z,3.9
2019-01-04T04:09:30.359Z,4.5
2019-01-04T04:12:30.227Z,4.5
2019-01-04T04:15:30.141Z,4.8
2019-01-04T04:18:30.376Z,4.2
2019-01-04T04:21:30.476Z,4
2019-01-04T04:24:30.048Z,4.2
2019-01-04T04:27:30.426Z,4
2019-01-04T04:30:30.595Z,4.9
2019-01-04T04:33:30.367Z,4.1
2019-01-04T04:36:30.358Z,4.2
2019-01-04T04:39:30.020Z,5
2019-01-04T04:42:30.082Z,3.9
2019-01-04T04:45:30.131Z,3.8
2019-01-04T04:48:30.540Z,4.4
2019-01-04T04:51:30.224Z,3.9
2019-01-04T04:54:30.404Z,3.9
2019-01-04T04:57:30.095Z,3.9
2019-01-04T05:00:30.317Z,3.9
2019-01-04T05:03:30.243Z,3.9
2019-01-04T05:06:30.604Z,4.6
2019-01-04T05:09:30.420Z,4.8
2019-01-04T05:12:29.916Z,3.6
2019-01-04T05:15:30.516Z,4
2019-01-04T05:18:30.360Z,3.8
2019-01-04T05:21:30.346Z,3.8
2019-01-04T05:24:30.214Z,4
2019-01-04T05:27:30.469Z,3.9
2019-01-04T05:30:30.110Z,3.8
2019-01-04T05:33:30.160Z,3.9
2019-01-04T05:36:30.287Z,3.9
2019-01-04T05:39:30.341Z,3.9
2019-01-04T05:42:30.014Z,4
2019-01-04T05:45:30.217Z,3.7
2019-01-04T05:48:30.100Z,3.9
2019-01-04T05:51:30.368Z,4.3
2019-01-04T05:54:30.312Z,3.8
2019-01-04T05:57:29.997Z,4.1
2019-01-04T06:00:30.541Z,4
2019-01-04T06:03:30.176Z,4.1
2019-01-04T06:06:30.472Z,4.1
2019-01-04T06:09:30.215Z,4
2019-01-04T06:12:30.384Z,4.2
2019-01-04T06:15:30.340Z,3.9
2019-01-04T06:18:30.120Z,4.2
2019-01-04T06:21:30.136Z,3.8
2019-01-04T06:24:30.074Z,4.1
2019-01-04T06:27:31.055Z,4.1
2019-01-04T06:30:30.257Z,7.2
2019-01-04T06:33:30.454Z,7.3
2019-01-04T06:36:30.917Z,5.2
2019-01-04T06:39:30.509Z,5.8
2019-01-04T06:42:31.067Z,4.3
2019-01-04T06:45:30.874Z,6
2019-01-04T06:48:30.326Z,5.8
2019-01-04T06:51:30.168Z,4.3
2019-01-04T06:54:30.390Z,4.5
2019-01-04T06:57:30.064Z,5.2
2019-01-04T07:00:29.989Z,4.5
2019-01-04T07:03:30.341Z,5.2
2019-01-04T07:06:30.312Z,6
2019-01-04T07:09:30.585Z,4.2
2019-01-04T07:12:30.738Z,3.8
2019-01-04T07:15:30.044Z,4.1
2019-01-04T07:18:30.089Z,4.3
2019-01-04T07:21:30.124Z,3.9
2019-01-04T07:24:30.071Z,5
2019-01-04T07:27:30.499Z,5.7
2019-01-04T07:30:30.758Z,4
2019-01-04T07:33:30.474Z,5.5
2019-01-04T07:36:30.342Z,3.8
2019-01-04T07:39:30.914Z,5.2
2019-01-04T07:42:30.411Z,4
2019-01-04T07:45:30.198Z,3.7
2019-01-04T07:48:30.496Z,3.9
2019-01-04T07:51:30.250Z,4.3
2019-01-04T07:54:31.628Z,4.1
2019-01-04T07:57:30.028Z,4
2019-01-04T08:00:30.459Z,4.2
2019-01-04T08:03:30.594Z,4
2019-01-04T08:06:30.187Z,4.6
2019-01-04T08:09:30.599Z,4.3
2019-01-04T08:12:30.153Z,3.9
2019-01-04T08:15:30.354Z,4.3
2019-01-04T08:18:30.107Z,3.6
2019-01-04T08:21:30.223Z,4.1
2019-01-04T08:24:30.326Z,4.6
2019-01-04T08:27:30.201Z,3.7
2019-01-04T08:30:30.354Z,3.9
2019-01-04T08:33:29.981Z,4.6
2019-01-04T08:36:30.049Z,4
2019-01-04T08:39:30.096Z,4
2019-01-04T08:42:30.480Z,4.7
2019-01-04T08:45:31.258Z,4.3
2019-01-04T08:48:30.387Z,3.9
2019-01-04T08:51:30.900Z,4.2
2019-01-04T08:54:30.281Z,4.1
2019-01-04T08:57:30.026Z,4.2
2019-01-04T09:00:30.507Z,4
2019-01-04T09:03:30.075Z,4.9
2019-01-04T09:06:30.266Z,4.9
2019-01-04T09:09:29.976Z,4.1
2019-01-04T09:12:30.152Z,4.1
2019-01-04T09:15:30.019Z,3.8
2019-01-04T09:18:30.023Z,3.9
2019-01-04T09:21:30.453Z,4
2019-01-04T09:24:30.456Z,3.8
2019-01-04T09:27:30.223Z,4.6
2019-01-04T09:30:30.660Z,3.9
2019-01-04T09:33:30.411Z,4
2019-01-04T09:36:30.175Z,3.6
2019-01-04T09:39:30.503Z,3.9
2019-01-04T09:42:30.194Z,3.8
2019-01-04T09:45:30.420Z,4.1
2019-01-04T09:48:30.416Z,4.1
2019-01-04T09:51:30.702Z,4
2019-01-04T09:54:30.633Z,4.6
2019-01-04T09:57:30.608Z,4
2019-01-04T10:00:30.516Z,4.4
2019-01-04T10:03:30.063Z,4
2019-01-04T10:06:30.361Z,4
2019-01-04T10:09:30.020Z,4
2019-01-04T10:12:30.326Z,4.1
2019-01-04T10:15:30.242Z,3.9
2019-01-04T10:18:29.951Z,4
2019-01-04T10:21:30.972Z,4
2019-01-04T10:24:30.214Z,4.2
2019-01-04T10:27:30.380Z,4.1
2019-01-04T10:30:30.431Z,4.3
2019-01-04T10:33:30.448Z,4.3
2019-01-04T10:36:30.090Z,4
2019-01-04T10:39:30.195Z,4.1
2019-01-04T10:42:30.032Z,4
2019-01-04T10:45:30.034Z,3.9
2019-01-04T10:48:30.302Z,3.8
2019-01-04T10:51:29.991Z,3.9
2019-01-04T10:54:30.160Z,4
2019-01-04T10:57:30.234Z,4
2019-01-04T11:00:30.106Z,4.1
2019-01-04T11:03:30.369Z,4
2019-01-04T11:06:30.179Z,4
2019-01-04T11:09:30.003Z,4.1
2019-01-04T11:12:30.404Z,3.9
2019-01-04T11:15:30.036Z,4.2
2019-01-04T11:18:30.287Z,3.6
2019-01-04T11:21:30.097Z,4.1
2019-01-04T11:24:30.711Z,4
2019-01-04T11:27:30.124Z,4.1
2019-01-04T11:30:30.004Z,4
2019-01-04T11:33:30.201Z,4.1
2019-01-04T11:36:30.161Z,4.1
2019-01-04T11:39:30.143Z,4.1
2019-01-04T11:42:30.527Z,3.8
2019-01-04T11:45:29.968Z,3.9
2019-01-04T11:48:29.951Z,4
2019-01-04T11:51:30.895Z,3.9
2019-01-04T11:54:30.182Z,4.1
2019-01-04T11:57:30.215Z,4.2
2019-01-04T12:00:30.504Z,4.2
2019-01-04T12:03:29.952Z,3.7
2019-01-04T12:06:30.353Z,3.6
2019-01-04T12:09:30.294Z,3.7
2019-01-04T12:12:30.244Z,4.3
2019-01-04T12:15:30.323Z,3.6
2019-01-04T12:18:31.043Z,3.9
2019-01-04T12:21:30.523Z,3.8
2019-01-04T12:24:30.038Z,3.8
2019-01-04T12:27:30.066Z,3.8
2019-01-04T12:30:30.140Z,3.7
2019-01-04T12:33:30.289Z,3.8
2019-01-04T12:36:30.437Z,3.9
2019-01-04T12:39:29.877Z,3.5
2019-01-04T12:42:29.969Z,3.8
2019-01-04T12:45:30.454Z,3.6
2019-01-04T12:48:30.109Z,3.9
2019-01-04T12:51:30.346Z,3.5
2019-01-04T12:54:30.328Z,4
2019-01-04T12:57:29.949Z,3.5
2019-01-04T13:00:30.000Z,3.4
2019-01-04T13:03:30.283Z,3.5
2019-01-04T13:06:30.839Z,3.7
2019-01-04T13:09:30.472Z,3.5
2019-01-04T13:12:30.420Z,3.7
2019-01-04T13:15:30.484Z,3.5
2019-01-04T13:18:29.981Z,3.6
2019-01-04T13:21:30.497Z,3.4
2019-01-04T13:24:30.435Z,3.5
2019-01-04T13:27:30.314Z,3.4
2019-01-04T13:30:29.841Z,3.6
2019-01-04T13:33:30.052Z,3.5
2019-01-04T13:36:30.593Z,3.5
2019-01-04T13:39:30.908Z,3.5
2019-01-04T13:42:30.148Z,3.7
2019-01-04T13:45:30.474Z,3.8
2019-01-04T13:48:30.831Z,3.2
2019-01-04T13:51:30.357Z,3.3
2019-01-04T13:54:30.524Z,3.5
2019-01-04T13:57:30.187Z,3.5
2019-01-04T14:00:30.207Z,3.4
2019-01-04T14:03:30.460Z,3.4
2019-01-04T14:06:29.785Z,3.5
2019-01-04T14:09:29.919Z,3.4
2019-01-04T14:12:30.252Z,3.5
2019-01-04T14:15:30.912Z,3.3
2019-01-04T14:18:30.171Z,3.7
2019-01-04T14:21:30.087Z,3.3
2019-01-04T14:24:30.019Z,3.3
2019-01-04T14:27:30.442Z,3.4
2019-01-04T14:30:30.054Z,3.2
2019-01-04T14:33:29.971Z,3.4
2019-01-04T14:36:29.996Z,3.5
2019-01-04T14:39:29.913Z,3.3
2019-01-04T14:42:29.794Z,3.2
2019-01-04T14:45:30.482Z,3.5
2019-01-04T14:48:30.028Z,3.4
2019-01-04T14:51:30.310Z,3.4
2019-01-04T14:54:30.111Z,3.3
2019-01-04T14:57:30.027Z,3.3
2019-01-04T15:00:29.817Z,3
2019-01-04T15:03:29.918Z,3.1
2019-01-04T15:06:30.258Z,3.1
2019-01-04T15:09:30.346Z,3.1
2019-01-04T15:12:30.178Z,3
2019-01-04T15:15:29.910Z,3.2
2019-01-04T15:18:29.801Z,3.1
2019-01-04T15:21:30.266Z,3.2
2019-01-04T15:24:30.306Z,2.8
2019-01-04T15:27:30.363Z,3.3
2019-01-04T15:30:30.603Z,3.2
2019-01-04T15:33:29.873Z,3.4
2019-01-04T15:36:29.857Z,3.2
2019-01-04T15:39:30.426Z,3.2
2019-01-04T15:42:30.011Z,3.1
2019-01-04T15:45:30.152Z,3.1
2019-01-04T15:48:30.882Z,3.3
2019-01-04T15:51:30.384Z,3.2
2019-01-04T15:54:30.135Z,3.3
2019-01-04T15:57:30.181Z,3.1
2019-01-04T16:00:29.918Z,3.2
2019-01-04T16:03:30.142Z,2.9
2019-01-04T16:06:30.313Z,3
2019-01-04T16:09:30.188Z,3
2019-01-04T16:12:29.853Z,3.1
2019-01-04T16:15:29.835Z,3
2019-01-04T16:18:29.944Z,3.2
2019-01-04T16:21:30.039Z,3.2
2019-01-04T16:24:30.073Z,2.8
2019-01-04T16:27:29.771Z,3.2
2019-01-04T16:30:29.942Z,3.1
2019-01-04T16:33:30.172Z,3.2
2019-01-04T16:36:30.159Z,3.2
2019-01-04T16:39:30.583Z,3.1
2019-01-04T16:42:30.200Z,3.2
2019-01-04T16:45:29.734Z,3.1
2019-01-04T16:48:29.875Z,3.2
2019-01-04T16:51:30.110Z,3.2
2019-01-04T16:54:30.144Z,3.2
2019-01-04T16:57:30.314Z,3.1
2019-01-04T17:00:29.881Z,3.1
2019-01-04T17:03:31.063Z,3.3
2019-01-04T17:06:30.393Z,3.1
2019-01-04T17:09:30.139Z,3.2
2019-01-04T17:12:30.090Z,4.1
2019-01-04T17:15:30.526Z,3.4
2019-01-04T17:18:30.143Z,3
2019-01-04T17:21:29.883Z,3.2
2019-01-04T17:24:29.865Z,3.1
2019-01-04T17:27:30.152Z,3.6
2019-01-04T17:30:30.681Z,3.7
2019-01-04T17:33:30.049Z,3
2019-01-04T17:36:30.053Z,3
2019-01-04T17:39:30.088Z,3.3
2019-01-04T17:42:30.240Z,3.1
2019-01-04T17:45:30.765Z,4.2
2019-01-04T17:48:29.987Z,7.5
2019-01-04T17:51:30.444Z,3.6
2019-01-04T17:54:29.966Z,5.7
2019-01-04T17:57:30.233Z,4.3
2019-01-04T18:00:29.934Z,3.3
2019-01-04T18:03:29.920Z,3.3
2019-01-04T18:06:30.214Z,4.2
2019-01-04T18:09:29.841Z,3.1
2019-01-04T18:12:29.802Z,4.5
2019-01-04T18:15:29.853Z,3.5
2019-01-04T18:18:30.833Z,2.8
2019-01-04T18:21:30.166Z,3.3
2019-01-04T18:24:30.000Z,4.1
2019-01-04T18:27:30.042Z,5.5
2019-01-04T18:30:30.362Z,4
2019-01-04T18:33:30.099Z,3
2019-01-04T18:36:30.341Z,3.1
2019-01-04T18:39:30.011Z,3.1
2019-01-04T18:42:29.700Z,3
2019-01-04T18:45:29.890Z,3.1
2019-01-04T18:48:29.843Z,3.1
2019-01-04T18:51:30.135Z,3.1
2019-01-04T18:54:29.757Z,2.7
2019-01-04T18:57:29.708Z,3.2
2019-01-04T19:00:30.744Z,3.3
2019-01-04T19:03:29.771Z,3.2
2019-01-04T19:06:31.636Z,3
2019-01-04T19:09:30.857Z,3
2019-01-04T19:12:29.878Z,3.1
2019-01-04T19:15:30.036Z,2.8
2019-01-04T19:18:30.198Z,3.4
2019-01-04T19:21:30.953Z,3.1
2019-01-04T19:24:30.371Z,3.6
2019-01-04T19:27:29.954Z,2.8
2019-01-04T19:30:30.305Z,4
2019-01-04T19:33:30.194Z,4.3
2019-01-04T19:36:29.793Z,2.9
2019-01-04T19:39:29.819Z,3
2019-01-04T19:42:30.213Z,3.1
2019-01-04T19:45:30.222Z,3.1
2019-01-04T19:48:29.772Z,3.2
2019-01-04T19:51:29.716Z,3.1
2019-01-04T19:54:29.802Z,3.7
2019-01-04T19:57:29.773Z,3.2
2019-01-04T20:00:29.755Z,3.4
2019-01-04T20:03:29.795Z,3.4
2019-01-04T20:06:29.781Z,3
2019-01-04T20:09:29.785Z,2.9
2019-01-04T20:12:29.965Z,3
2019-01-04T20:25:03.129Z,3.2
2019-01-04T20:28:02.911Z,3.1
2019-01-04T20:31:02.857Z,3.3
2019-01-04T20:34:03.275Z,3.1
2019-01-04T20:37:02.795Z,3.3
2019-01-04T20:40:03.424Z,4
2019-01-04T20:43:04.100Z,3.9
2019-01-04T20:46:02.959Z,3.7
2019-01-04T20:49:03.627Z,4
2019-01-04T20:52:02.976Z,3.7
2019-01-04T20:55:03.935Z,3.5
2019-01-04T20:58:03.018Z,3.9
2019-01-04T21:01:02.918Z,3.6
2019-01-04T21:04:03.584Z,3.8
2019-01-04T21:07:03.207Z,3.7
2019-01-04T21:12:07.154Z,3.6
2019-01-04T21:17:43.890Z,3.4
2019-01-04T21:20:44.019Z,3.8
2019-01-04T21:23:43.164Z,3.6
2019-01-04T21:26:43.691Z,3.4
2019-01-04T21:29:43.787Z,3.4
2019-01-04T21:32:43.377Z,3.5
2019-01-04T21:35:43.319Z,3.9
2019-01-04T21:38:43.385Z,4.2
2019-01-04T21:41:43.904Z,4.1
2019-01-04T21:44:43.831Z,3.5
2019-01-04T21:47:43.683Z,4
2019-01-04T21:50:43.699Z,3.6
2019-01-04T21:53:43.307Z,3.4
2019-01-04T21:56:43.405Z,4.3
2019-01-04T21:59:43.391Z,3.6
2019-01-04T22:02:44.378Z,4.8
2019-01-04T22:05:43.423Z,4
2019-01-04T22:08:43.274Z,3.9
2019-01-04T22:11:43.318Z,3.6
2019-01-04T22:14:44.089Z,4.1
2019-01-04T22:17:43.770Z,3.6
2019-01-04T22:20:43.681Z,3.9
2019-01-04T22:23:43.720Z,3.5
2019-01-04T22:26:44.237Z,4
2019-01-04T22:29:43.422Z,3.9
2019-01-04T22:32:43.519Z,4
2019-01-04T22:35:43.556Z,3.7
2019-01-04T22:38:43.257Z,3.9
2019-01-04T22:41:43.622Z,3.8
2019-01-04T22:44:43.375Z,3.8
2019-01-04T22:47:43.464Z,3.9
2019-01-04T22:50:43.614Z,3.5
2019-01-04T22:53:43.598Z,3.8
2019-01-04T22:56:43.484Z,3.7
2019-01-04T22:59:43.854Z,3.8
2019-01-04T23:02:43.527Z,3.8
2019-01-04T23:05:44.200Z,4.2
2019-01-04T23:08:43.278Z,3.7
2019-01-04T23:11:43.523Z,3.9
2019-01-04T23:14:43.406Z,3.7
2019-01-04T23:17:43.555Z,3.8
2019-01-04T23:20:43.436Z,3.7
2019-01-04T23:23:43.460Z,4
2019-01-04T23:26:43.218Z,3.9
2019-01-04T23:29:43.429Z,3.6
2019-01-04T23:32:43.478Z,4.1
2019-01-04T23:35:43.791Z,3.8
2019-01-04T23:38:43.860Z,3.9
2019-01-04T23:41:43.298Z,4.1
2019-01-04T23:44:43.387Z,3.6
2019-01-04T23:47:43.449Z,3.8
2019-01-04T23:50:43.587Z,3.7
2019-01-04T23:53:43.905Z,4
2019-01-04T23:56:43.644Z,3.5
2019-01-04T23:59:43.265Z,3.7
